Time;durP1;ratioP1;P1;durP2;ratioP2;P2;SDS_P1;SDS_P2;PMS_P1;PMS_P2;Temp;Humidity;BMP_temperature;BMP_pressure;BME280_temperature;BME280_humidity;BME280_pressure;Samples;Min_cycle;Max_cycle;Signal;HPM_P1;HPM_P2
2021/08/30 00:01:41;;;;;;;8.50;5.93;;;16.70;99.90;;;;;;4919255;28;39169;-78
2021/08/30 00:04:07;;;;;;;8.23;6.20;;;16.70;99.90;;;;;;4924682;28;37124;-78
2021/08/30 00:06:33;;;;;;;9.38;6.13;;;16.70;99.90;;;;;;4910041;28;39012;-78
2021/08/30 00:08:59;;;;;;;9.15;6.28;;;16.80;99.90;;;;;;4921075;28;39584;-79
2021/08/30 00:11:25;;;;;;;9.05;5.75;;;16.80;99.90;;;;;;4925837;28;38878;-78
2021/08/30 00:13:51;;;;;;;10.13;6.65;;;16.80;99.90;;;;;;4925157;28;38597;-78
2021/08/30 00:16:17;;;;;;;8.73;6.10;;;16.80;99.90;;;;;;4917299;28;39528;-78
2021/08/30 00:18:44;;;;;;;7.53;5.45;;;16.80;99.90;;;;;;4928281;28;38329;-78
2021/08/30 00:21:10;;;;;;;8.52;5.75;;;16.80;99.90;;;;;;4904856;28;39811;-78
2021/08/30 00:23:36;;;;;;;9.52;5.90;;;16.80;99.90;;;;;;4919061;28;37231;-78
2021/08/30 00:26:04;;;;;;;7.90;5.95;;;16.80;99.90;;;;;;4905071;28;39321;-78
2021/08/30 00:28:32;;;;;;;9.13;5.95;;;16.80;99.90;;;;;;4923523;28;38597;-79
2021/08/30 00:30:58;;;;;;;7.70;5.43;;;16.80;99.90;;;;;;4902553;28;38254;-79
2021/08/30 00:33:24;;;;;;;8.65;6.25;;;16.80;99.90;;;;;;4924150;28;37055;-79
2021/08/30 00:35:50;;;;;;;9.02;6.78;;;16.80;99.90;;;;;;4922053;28;39932;-78
2021/08/30 00:38:16;;;;;;;7.88;5.53;;;16.80;99.90;;;;;;4923375;28;39454;-78
2021/08/30 00:40:42;;;;;;;7.90;5.95;;;16.80;99.90;;;;;;4925901;28;39235;-78
2021/08/30 00:43:09;;;;;;;7.10;5.47;;;16.80;99.90;;;;;;4922220;28;36681;-78
2021/08/30 00:45:36;;;;;;;11.20;5.95;;;16.80;99.90;;;;;;4919594;29;40626;-79
2021/08/30 00:48:02;;;;;;;10.20;6.20;;;16.80;99.90;;;;;;4926114;28;39382;-78
2021/08/30 00:50:28;;;;;;;6.93;5.57;;;16.80;99.90;;;;;;4921019;28;37012;-78
2021/08/30 00:52:55;;;;;;;9.82;6.05;;;16.80;99.90;;;;;;4926725;28;37350;-78
2021/08/30 00:55:21;;;;;;;8.55;6.28;;;16.80;99.90;;;;;;4924148;28;39999;-78
2021/08/30 00:57:47;;;;;;;8.20;6.07;;;16.80;99.90;;;;;;4909277;29;38737;-78
2021/08/30 01:00:14;;;;;;;8.68;5.35;;;16.80;99.90;;;;;;4918786;28;39087;-78
2021/08/30 01:02:42;;;;;;;10.18;5.32;;;16.80;99.90;;;;;;4905835;29;36673;-79
2021/08/30 01:05:10;;;;;;;7.80;5.82;;;16.80;99.90;;;;;;4908690;29;39154;-79
2021/08/30 01:07:59;;;;;;;10.20;6.25;;;16.80;99.90;;;;;;4924213;28;39193;-79
2021/08/30 01:10:36;;;;;;;7.45;6.10;;;16.80;99.90;;;;;;4923721;28;38005;-78
2021/08/30 01:13:08;;;;;;;8.25;5.82;;;16.80;99.90;;;;;;4924190;29;37463;-78
2021/08/30 01:15:43;;;;;;;9.00;5.63;;;16.80;99.90;;;;;;4909653;29;39443;-78
2021/08/30 01:18:17;;;;;;;10.10;6.38;;;16.80;99.90;;;;;;4917234;28;39535;-78
2021/08/30 01:21:07;;;;;;;8.80;6.32;;;16.80;99.90;;;;;;4922194;28;39501;-78
2021/08/30 01:23:39;;;;;;;10.25;6.25;;;16.80;99.90;;;;;;4919458;29;47243;-78
2021/08/30 01:26:08;;;;;;;9.48;6.18;;;16.80;99.90;;;;;;4921411;28;40146;-78
2021/08/30 01:28:42;;;;;;;10.98;6.45;;;16.80;99.90;;;;;;4903794;28;38456;-78
2021/08/30 01:31:51;;;;;;;7.47;6.10;;;16.80;99.90;;;;;;4926708;28;37656;-78
2021/08/30 01:34:19;;;;;;;10.18;6.30;;;16.80;99.90;;;;;;4921401;28;37290;-78
2021/08/30 01:36:46;;;;;;;9.20;6.50;;;16.80;99.90;;;;;;4925762;28;40318;-78
2021/08/30 01:39:13;;;;;;;11.63;6.50;;;16.80;99.90;;;;;;4925236;28;39122;-78
2021/08/30 01:41:39;;;;;;;9.68;6.57;;;16.80;99.90;;;;;;4920242;28;37679;-78
2021/08/30 01:44:07;;;;;;;10.13;6.88;;;16.80;99.90;;;;;;4923434;28;39014;-78
2021/08/30 01:46:35;;;;;;;10.93;6.38;;;16.80;99.90;;;;;;4899229;28;39966;-78
2021/08/30 01:49:02;;;;;;;11.50;7.32;;;16.80;99.90;;;;;;4906102;28;39296;-77
2021/08/30 01:51:29;;;;;;;7.30;6.60;;;16.80;99.90;;;;;;4906061;28;38393;-78
2021/08/30 01:53:56;;;;;;;10.98;6.70;;;16.80;99.90;;;;;;4924817;28;37260;-78
2021/08/30 01:56:26;;;;;;;11.10;7.60;;;16.80;99.90;;;;;;4923154;28;38700;-78
2021/08/30 02:01:38;;;;;;;15.15;7.95;;;16.80;99.90;;;;;;4924981;28;49585;-78
2021/08/30 02:04:04;;;;;;;14.52;8.45;;;16.80;99.90;;;;;;4907978;28;37636;-78
2021/08/30 02:06:34;;;;;;;10.50;7.72;;;16.80;99.90;;;;;;4920798;28;38778;-78
2021/08/30 02:09:02;;;;;;;11.90;8.38;;;16.80;99.90;;;;;;4926196;28;39245;-78
2021/08/30 02:11:33;;;;;;;9.32;7.28;;;16.80;99.90;;;;;;4921563;28;47272;-78
2021/08/30 02:14:01;;;;;;;13.80;8.40;;;16.80;99.90;;;;;;4926721;28;37246;-80
2021/08/30 02:16:28;;;;;;;11.07;7.63;;;16.80;99.90;;;;;;4926202;28;48720;-78
2021/08/30 02:19:15;;;;;;;11.50;7.25;;;16.80;99.90;;;;;;4929772;28;39133;-78
2021/08/30 02:21:45;;;;;;;13.73;8.05;;;16.80;99.90;;;;;;4927506;28;48875;-78
2021/08/30 02:24:33;;;;;;;15.32;8.65;;;16.80;99.90;;;;;;4925154;28;37565;-78
2021/08/30 02:27:08;;;;;;;10.13;7.22;;;16.80;99.90;;;;;;4926884;28;38772;-78
2021/08/30 02:29:44;;;;;;;10.95;7.03;;;16.80;99.90;;;;;;4899566;28;47386;-78
2021/08/30 02:32:13;;;;;;;12.95;8.43;;;16.80;99.90;;;;;;4921099;28;37864;-79
2021/08/30 02:34:43;;;;;;;14.65;8.10;;;16.80;99.90;;;;;;4924272;28;37030;-78
2021/08/30 02:37:11;;;;;;;12.10;8.00;;;16.80;99.90;;;;;;4924062;28;38743;-78
2021/08/30 02:39:38;;;;;;;11.25;7.57;;;16.80;99.90;;;;;;4923878;28;38745;-77
2021/08/30 02:42:06;;;;;;;9.63;7.95;;;16.80;99.90;;;;;;4922566;28;38897;-77
2021/08/30 02:44:33;;;;;;;10.63;7.85;;;16.80;99.90;;;;;;4923503;28;37651;-77
2021/08/30 02:47:00;;;;;;;12.20;8.52;;;16.80;99.90;;;;;;4924309;28;38503;-78
2021/08/30 02:49:27;;;;;;;11.38;8.43;;;16.80;99.90;;;;;;4914108;28;47790;-78
2021/08/30 02:51:55;;;;;;;16.50;8.68;;;16.80;99.90;;;;;;4927307;28;39171;-77
2021/08/30 02:54:22;;;;;;;13.65;8.70;;;16.80;99.90;;;;;;4907670;28;38635;-78
2021/08/30 02:56:49;;;;;;;12.70;9.00;;;16.80;99.90;;;;;;4921116;28;39321;-78
2021/08/30 02:59:16;;;;;;;12.45;8.85;;;16.80;99.90;;;;;;4925029;28;38497;-78
2021/08/30 03:01:43;;;;;;;14.43;9.73;;;16.80;99.90;;;;;;4925018;28;37619;-78
2021/08/30 03:04:11;;;;;;;12.55;9.55;;;16.90;99.90;;;;;;4924437;28;38595;-78
2021/08/30 03:06:38;;;;;;;16.73;10.20;;;16.80;99.90;;;;;;4916859;28;38872;-78
2021/08/30 03:09:05;;;;;;;18.05;11.35;;;16.80;99.90;;;;;;4925957;28;38448;-77
2021/08/30 03:11:32;;;;;;;18.08;10.57;;;16.80;99.90;;;;;;4923846;28;37625;-78
2021/08/30 03:14:00;;;;;;;17.33;10.98;;;16.80;99.90;;;;;;4909121;29;37702;-78
2021/08/30 03:16:28;;;;;;;19.05;12.30;;;16.80;99.90;;;;;;4923127;28;41670;-78
2021/08/30 03:18:57;;;;;;;20.92;11.98;;;16.80;99.90;;;;;;4915175;29;38859;-78
2021/08/30 03:21:27;;;;;;;21.20;12.65;;;16.80;99.90;;;;;;4910503;29;39075;-77
2021/08/30 03:23:55;;;;;;;16.73;13.13;;;16.80;99.90;;;;;;4911924;28;36954;-78
2021/08/30 03:26:24;;;;;;;17.08;12.18;;;16.80;99.90;;;;;;4924427;28;38651;-77
2021/08/30 03:28:51;;;;;;;17.10;12.25;;;16.80;99.90;;;;;;4911831;29;37241;-77
2021/08/30 03:31:18;;;;;;;19.90;12.52;;;16.80;99.90;;;;;;4905323;29;38946;-77
2021/08/30 03:33:45;;;;;;;18.10;12.77;;;16.80;99.90;;;;;;4926886;28;36430;-77
2021/08/30 03:36:11;;;;;;;14.82;10.93;;;16.80;99.90;;;;;;4907092;29;37884;-78
2021/08/30 03:38:39;;;;;;;15.45;11.52;;;16.80;99.90;;;;;;4914801;29;38745;-78
2021/08/30 03:41:06;;;;;;;17.77;12.15;;;16.80;99.90;;;;;;4910476;29;37137;-77
2021/08/30 03:43:32;;;;;;;20.13;12.98;;;16.70;99.90;;;;;;4910069;29;36530;-77
2021/08/30 03:46:00;;;;;;;17.77;11.90;;;16.70;99.90;;;;;;4925265;28;39591;-78
2021/08/30 03:48:28;;;;;;;18.13;12.50;;;16.60;99.90;;;;;;4923518;28;38398;-77
2021/08/30 03:50:54;;;;;;;17.85;11.88;;;16.60;99.90;;;;;;4922273;28;38608;-77
2021/08/30 03:53:22;;;;;;;16.60;11.35;;;16.50;99.90;;;;;;4922179;28;37773;-77
2021/08/30 03:55:49;;;;;;;17.60;12.32;;;16.40;99.90;;;;;;4902341;28;38053;-77
2021/08/30 03:58:19;;;;;;;18.75;12.27;;;16.40;99.90;;;;;;4922891;28;38750;-77
2021/08/30 04:00:45;;;;;;;18.55;13.48;;;16.30;99.90;;;;;;4922743;28;38315;-77
2021/08/30 04:03:13;;;;;;;19.60;13.50;;;16.30;99.90;;;;;;4921825;28;36249;-77
2021/08/30 04:05:43;;;;;;;22.08;13.02;;;16.20;99.90;;;;;;4923778;28;39790;-77
2021/08/30 04:08:09;;;;;;;22.88;13.35;;;16.20;99.90;;;;;;4923481;28;37671;-77
2021/08/30 04:10:37;;;;;;;19.30;13.73;;;16.10;99.90;;;;;;4921777;28;39217;-77
2021/08/30 04:13:04;;;;;;;19.48;14.27;;;16.10;99.90;;;;;;4933140;28;37301;-77
2021/08/30 04:15:31;;;;;;;21.77;15.02;;;16.10;99.90;;;;;;4924729;28;39660;-78
2021/08/30 04:17:57;;;;;;;21.15;14.20;;;16.00;99.90;;;;;;4903153;29;37583;-78
2021/08/30 04:20:23;;;;;;;19.90;14.27;;;16.00;99.90;;;;;;4924633;28;38407;-77
2021/08/30 04:22:49;;;;;;;23.25;14.90;;;16.00;99.90;;;;;;4911108;29;38020;-77
2021/08/30 04:25:15;;;;;;;21.42;14.07;;;16.00;99.90;;;;;;4923353;28;40461;-77
2021/08/30 04:27:42;;;;;;;21.80;15.77;;;15.90;99.90;;;;;;4909356;28;39682;-77
2021/08/30 04:30:08;;;;;;;22.95;15.65;;;15.90;99.90;;;;;;4918226;28;38586;-76
2021/08/30 04:32:36;;;;;;;21.55;15.35;;;15.90;99.90;;;;;;4923880;28;38479;-77
2021/08/30 04:35:05;;;;;;;20.98;14.65;;;15.90;99.90;;;;;;4921958;28;39587;-77
2021/08/30 04:37:31;;;;;;;23.35;14.93;;;15.90;99.90;;;;;;4903164;29;46871;-77
2021/08/30 04:39:57;;;;;;;21.67;14.88;;;15.90;99.90;;;;;;4923712;28;39354;-78
2021/08/30 04:42:23;;;;;;;21.60;15.85;;;15.90;99.90;;;;;;4926055;28;38438;-78
2021/08/30 04:44:52;;;;;;;21.15;15.55;;;15.90;99.90;;;;;;4927848;28;39972;-78
2021/08/30 04:47:18;;;;;;;26.88;16.50;;;15.90;99.90;;;;;;4905495;28;38762;-78
2021/08/30 04:49:44;;;;;;;22.52;15.07;;;15.90;99.90;;;;;;4909551;28;39583;-77
2021/08/30 04:52:10;;;;;;;27.23;16.42;;;15.90;99.90;;;;;;4924174;28;38956;-78
2021/08/30 04:54:36;;;;;;;24.45;14.85;;;15.90;99.90;;;;;;4902876;28;40503;-78
2021/08/30 04:57:03;;;;;;;32.03;18.27;;;15.90;99.90;;;;;;4920318;28;39453;-77
2021/08/30 04:59:29;;;;;;;28.92;17.20;;;15.90;99.90;;;;;;4923555;28;37099;-77
2021/08/30 05:01:55;;;;;;;23.83;17.27;;;15.90;99.90;;;;;;4906314;29;38165;-77
2021/08/30 05:04:21;;;;;;;23.95;16.15;;;15.90;99.90;;;;;;4924278;28;40457;-78
2021/08/30 05:06:47;;;;;;;24.65;16.98;;;15.90;99.90;;;;;;4923974;28;38805;-77
2021/08/30 05:09:13;;;;;;;25.75;16.75;;;15.90;99.90;;;;;;4911502;29;38759;-78
2021/08/30 05:11:39;;;;;;;23.27;15.82;;;15.90;99.90;;;;;;4906941;28;37885;-77
2021/08/30 05:14:05;;;;;;;27.73;16.67;;;16.00;99.90;;;;;;4911567;29;39262;-77
2021/08/30 05:16:32;;;;;;;28.17;16.73;;;16.00;99.90;;;;;;4905067;29;38453;-77
2021/08/30 05:18:58;;;;;;;21.20;16.00;;;16.00;99.90;;;;;;4929670;28;38695;-77
2021/08/30 05:21:24;;;;;;;21.65;15.20;;;16.10;99.90;;;;;;4908211;28;37527;-77
2021/08/30 05:23:50;;;;;;;21.10;15.13;;;16.10;99.90;;;;;;4908226;28;39047;-78
2021/08/30 05:26:16;;;;;;;27.05;16.73;;;16.20;99.90;;;;;;4924394;28;38023;-78
2021/08/30 05:28:42;;;;;;;23.33;13.73;;;16.20;99.90;;;;;;4924528;29;38857;-77
2021/08/30 05:31:08;;;;;;;25.42;15.43;;;16.20;99.90;;;;;;4903687;29;37083;-78
2021/08/30 05:33:37;;;;;;;24.67;16.08;;;16.30;99.90;;;;;;4910081;29;40126;-77
2021/08/30 05:36:05;;;;;;;24.95;14.95;;;16.30;99.90;;;;;;4920766;28;39610;-78
2021/08/30 05:38:31;;;;;;;20.58;13.93;;;16.30;99.90;;;;;;4927920;28;38142;-78
2021/08/30 05:40:57;;;;;;;23.30;13.95;;;16.40;99.90;;;;;;4928391;28;37445;-78
2021/08/30 05:43:24;;;;;;;28.48;14.48;;;16.40;99.90;;;;;;4923892;28;39272;-78
2021/08/30 05:45:50;;;;;;;20.65;13.90;;;16.50;99.90;;;;;;4924522;28;39591;-78
2021/08/30 05:48:16;;;;;;;20.90;14.88;;;16.50;99.90;;;;;;4908939;28;38676;-78
2021/08/30 05:50:42;;;;;;;29.30;15.23;;;16.50;99.90;;;;;;4908765;28;39293;-78
2021/08/30 05:53:08;;;;;;;18.83;13.60;;;16.60;99.90;;;;;;4929618;28;37144;-77
2021/08/30 05:55:34;;;;;;;19.48;13.02;;;16.70;99.90;;;;;;4923837;28;39917;-78
2021/08/30 05:58:00;;;;;;;18.88;12.57;;;16.70;99.90;;;;;;4922515;28;38660;-78
2021/08/30 06:00:26;;;;;;;20.67;12.57;;;16.70;99.90;;;;;;4908214;28;37957;-78
2021/08/30 06:02:52;;;;;;;18.85;12.45;;;16.80;99.90;;;;;;4925725;28;38698;-77
2021/08/30 06:05:18;;;;;;;20.73;13.18;;;16.80;99.90;;;;;;4925554;28;37639;-78
2021/08/30 06:07:44;;;;;;;21.63;13.05;;;16.80;99.90;;;;;;4927772;28;36091;-77
2021/08/30 06:10:11;;;;;;;22.10;14.02;;;16.80;99.90;;;;;;4914396;28;37256;-77
2021/08/30 06:12:38;;;;;;;19.70;14.10;;;16.90;99.90;;;;;;4908341;29;39379;-77
2021/08/30 06:15:05;;;;;;;18.48;12.43;;;16.90;99.90;;;;;;4905612;28;38054;-77
2021/08/30 06:17:31;;;;;;;21.05;11.90;;;17.00;99.90;;;;;;4927773;28;47860;-78
2021/08/30 06:19:57;;;;;;;22.63;13.75;;;17.00;99.90;;;;;;4923791;28;38152;-78
2021/08/30 06:22:23;;;;;;;20.67;13.63;;;17.10;99.90;;;;;;4924530;28;38834;-77
2021/08/30 06:24:50;;;;;;;22.20;13.60;;;17.10;99.90;;;;;;4927095;28;38364;-78
2021/08/30 06:27:20;;;;;;;18.05;12.75;;;17.10;99.90;;;;;;4928924;28;38819;-78
2021/08/30 06:29:49;;;;;;;18.83;12.02;;;17.10;99.90;;;;;;4903247;29;37633;-77
2021/08/30 06:32:16;;;;;;;20.20;12.18;;;17.10;99.90;;;;;;4907731;29;39454;-77
2021/08/30 06:34:42;;;;;;;22.83;13.32;;;17.20;99.90;;;;;;4925620;28;37317;-77
2021/08/30 06:37:08;;;;;;;17.60;12.35;;;17.10;99.90;;;;;;4927140;28;40251;-77
2021/08/30 06:39:35;;;;;;;21.27;14.25;;;17.20;99.90;;;;;;4926859;29;37968;-77
2021/08/30 06:42:01;;;;;;;18.80;13.18;;;17.20;99.90;;;;;;4925884;28;39945;-78
2021/08/30 06:44:27;;;;;;;24.02;13.23;;;17.20;99.90;;;;;;4922515;28;48827;-78
2021/08/30 06:46:53;;;;;;;19.10;13.32;;;17.20;99.90;;;;;;4912167;29;38745;-78
2021/08/30 06:49:19;;;;;;;25.05;13.40;;;17.20;99.90;;;;;;4925618;28;37375;-78
2021/08/30 06:51:45;;;;;;;21.67;14.35;;;17.20;99.90;;;;;;4929138;29;38803;-78
2021/08/30 06:54:11;;;;;;;21.63;12.93;;;17.20;99.90;;;;;;4906405;29;38657;-78
2021/08/30 06:56:38;;;;;;;21.23;14.48;;;17.20;99.90;;;;;;4912035;29;38257;-78
2021/08/30 06:59:04;;;;;;;21.00;14.35;;;17.30;99.90;;;;;;4928348;28;38159;-77
2021/08/30 07:01:30;;;;;;;22.10;14.02;;;17.30;99.90;;;;;;4911904;29;37118;-78
2021/08/30 07:03:56;;;;;;;28.52;15.10;;;17.30;99.90;;;;;;4927548;29;38206;-79
2021/08/30 07:06:22;;;;;;;20.63;15.27;;;17.30;99.90;;;;;;4921822;28;39540;-78
2021/08/30 07:08:48;;;;;;;20.27;13.73;;;17.30;99.90;;;;;;4925354;29;38460;-78
2021/08/30 07:11:14;;;;;;;26.75;15.85;;;17.30;99.90;;;;;;4922523;28;39904;-78
2021/08/30 07:13:40;;;;;;;24.75;15.75;;;17.30;99.90;;;;;;4924007;29;38423;-79
2021/08/30 07:16:06;;;;;;;25.88;17.95;;;17.30;99.90;;;;;;4908924;29;37052;-78
2021/08/30 07:18:32;;;;;;;25.95;16.73;;;17.30;99.90;;;;;;4922502;28;37504;-78
2021/08/30 07:20:58;;;;;;;25.20;16.58;;;17.30;99.90;;;;;;4919117;28;37833;-76
2021/08/30 07:23:24;;;;;;;26.73;19.00;;;17.40;99.90;;;;;;4919845;29;39274;-76
2021/08/30 07:25:51;;;;;;;25.05;17.83;;;17.40;99.90;;;;;;4914267;29;38985;-76
2021/08/30 07:28:17;;;;;;;27.23;17.55;;;17.50;99.90;;;;;;4912027;28;37538;-76
2021/08/30 07:30:43;;;;;;;26.00;16.67;;;17.50;99.90;;;;;;4917638;28;38704;-76
2021/08/30 07:33:10;;;;;;;20.02;14.52;;;17.50;99.90;;;;;;4920708;28;38343;-76
2021/08/30 07:35:36;;;;;;;26.08;16.45;;;17.60;99.90;;;;;;4906269;29;37680;-76
2021/08/30 07:38:02;;;;;;;19.50;14.85;;;17.60;99.90;;;;;;4926014;29;37946;-76
2021/08/30 07:40:28;;;;;;;21.90;14.48;;;17.70;99.90;;;;;;4925774;28;40059;-77
2021/08/30 07:42:54;;;;;;;20.10;15.05;;;17.80;99.90;;;;;;4910210;28;38632;-77
2021/08/30 07:45:20;;;;;;;21.23;15.48;;;17.80;99.90;;;;;;4901093;28;38354;-77
2021/08/30 07:47:46;;;;;;;20.08;13.68;;;17.90;99.90;;;;;;4909671;29;37472;-76
2021/08/30 07:50:13;;;;;;;21.50;14.57;;;18.00;99.90;;;;;;4908793;28;37833;-76
2021/08/30 07:52:39;;;;;;;20.38;14.20;;;18.10;99.90;;;;;;4905331;29;38803;-78
2021/08/30 07:55:06;;;;;;;17.95;13.05;;;18.10;99.90;;;;;;4910339;28;40725;-75
2021/08/30 07:57:32;;;;;;;21.08;14.00;;;18.20;99.90;;;;;;4906377;29;48670;-75
2021/08/30 07:59:59;;;;;;;19.05;12.18;;;18.30;99.90;;;;;;4926125;29;38910;-76
2021/08/30 08:02:25;;;;;;;15.45;11.98;;;18.40;99.90;;;;;;4908349;29;37191;-77
2021/08/30 08:04:51;;;;;;;17.08;11.60;;;18.50;99.90;;;;;;4923212;29;37996;-77
2021/08/30 08:07:17;;;;;;;17.05;11.10;;;18.60;99.90;;;;;;4906838;29;36429;-77
2021/08/30 08:09:43;;;;;;;17.30;12.15;;;18.70;99.90;;;;;;4927590;28;38135;-77
2021/08/30 08:12:09;;;;;;;17.50;12.63;;;18.90;99.90;;;;;;4910004;29;38530;-76
2021/08/30 08:14:35;;;;;;;19.48;14.60;;;19.00;99.90;;;;;;4922600;29;38270;-78
2021/08/30 08:17:01;;;;;;;20.58;14.50;;;19.00;99.90;;;;;;4906560;29;37919;-73
2021/08/30 08:19:27;;;;;;;23.58;15.27;;;19.00;99.90;;;;;;4910124;29;37862;-77
2021/08/30 08:21:55;;;;;;;20.63;15.07;;;18.90;99.90;;;;;;4907098;29;37582;-77
2021/08/30 08:24:24;;;;;;;23.30;15.60;;;19.00;99.90;;;;;;4922030;29;38004;-76
2021/08/30 08:26:51;;;;;;;21.05;14.88;;;19.00;99.90;;;;;;4923829;28;37402;-77
2021/08/30 08:29:17;;;;;;;17.50;13.82;;;19.10;99.90;;;;;;4926088;29;38991;-77
2021/08/30 08:31:43;;;;;;;21.38;14.68;;;19.20;99.90;;;;;;4926357;29;38158;-77
2021/08/30 08:34:09;;;;;;;18.98;14.80;;;19.10;99.90;;;;;;4925159;29;39139;-77
2021/08/30 08:36:35;;;;;;;21.95;16.17;;;19.20;99.90;;;;;;4916641;29;37213;-77
2021/08/30 08:39:02;;;;;;;22.48;15.60;;;19.00;99.90;;;;;;4906184;29;38707;-77
2021/08/30 08:41:28;;;;;;;17.55;14.70;;;19.00;99.90;;;;;;4925487;28;39113;-77
2021/08/30 08:43:56;;;;;;;16.58;13.55;;;19.00;99.90;;;;;;4927321;28;37798;-78
2021/08/30 08:46:23;;;;;;;20.15;15.30;;;19.10;99.90;;;;;;4922285;29;37867;-77
2021/08/30 08:48:49;;;;;;;19.33;14.60;;;19.10;99.90;;;;;;4909933;29;37776;-77
2021/08/30 08:51:16;;;;;;;19.35;14.25;;;19.10;99.90;;;;;;4919166;29;37072;-77
2021/08/30 08:53:43;;;;;;;17.88;14.00;;;19.20;99.90;;;;;;4925448;29;38243;-77
2021/08/30 08:56:14;;;;;;;22.15;14.73;;;19.10;99.90;;;;;;4923884;29;36408;-77
2021/08/30 08:58:40;;;;;;;17.73;13.50;;;19.20;99.90;;;;;;4925262;29;37805;-78
2021/08/30 09:01:12;;;;;;;16.85;12.02;;;19.20;99.90;;;;;;4914661;28;37417;-78
2021/08/30 09:03:46;;;;;;;26.08;15.07;;;19.40;99.90;;;;;;4926870;28;38683;-78
2021/08/30 09:06:23;;;;;;;18.38;13.00;;;19.40;99.90;;;;;;4924899;28;37573;-78
2021/08/30 09:08:56;;;;;;;18.38;13.48;;;19.30;99.90;;;;;;4922441;28;38635;-78
2021/08/30 09:11:23;;;;;;;18.13;12.00;;;19.30;99.90;;;;;;4925228;28;39971;-77
2021/08/30 09:13:55;;;;;;;17.25;12.18;;;19.30;99.90;;;;;;4925254;28;38287;-78
2021/08/30 09:16:22;;;;;;;;;;;19.40;99.90;;;;;;4906575;29;36594;-78
2021/08/30 09:18:49;;;;;;;20.13;12.82;;;19.40;99.90;;;;;;4910010;29;41138;-77
2021/08/30 09:21:17;;;;;;;19.40;12.88;;;19.40;99.90;;;;;;4906655;29;38306;-78
2021/08/30 09:23:44;;;;;;;18.70;12.02;;;19.30;99.90;;;;;;4923041;28;38845;-78
2021/08/30 09:26:19;;;;;;;20.95;12.38;;;19.20;99.90;;;;;;4921432;28;37555;-77
2021/08/30 09:28:55;;;;;;;15.00;12.07;;;19.10;99.90;;;;;;4926699;29;38959;-78
2021/08/30 09:31:22;;;;;;;21.13;13.23;;;19.10;99.90;;;;;;4924772;28;38956;-76
2021/08/30 09:33:49;;;;;;;18.88;12.18;;;19.10;99.90;;;;;;4913768;29;36949;-77
2021/08/30 09:36:17;;;;;;;17.80;12.00;;;19.20;99.90;;;;;;4924404;28;36584;-78
2021/08/30 09:38:43;;;;;;;15.70;10.32;;;19.20;99.90;;;;;;4924156;28;39614;-77
2021/08/30 09:41:11;;;;;;;17.65;10.63;;;19.30;99.90;;;;;;4924500;28;39204;-77
2021/08/30 09:43:37;;;;;;;15.48;10.55;;;19.50;99.90;;;;;;4923893;29;38502;-78
2021/08/30 09:46:05;;;;;;;17.52;9.77;;;19.70;99.90;;;;;;4922708;28;36258;-78
2021/08/30 09:48:34;;;;;;;17.63;10.18;;;19.80;99.90;;;;;;4921041;28;40737;-77
2021/08/30 09:51:02;;;;;;;17.23;10.50;;;19.80;99.90;;;;;;4928722;28;37286;-77
2021/08/30 09:53:30;;;;;;;18.63;10.10;;;19.90;99.90;;;;;;4925146;29;47551;-79
2021/08/30 09:55:57;;;;;;;18.58;9.27;;;20.10;99.90;;;;;;4907672;29;36224;-78
2021/08/30 09:58:27;;;;;;;18.95;11.25;;;20.00;99.90;;;;;;4925625;28;38987;-80
2021/08/30 10:00:59;;;;;;;16.35;10.38;;;20.00;99.90;;;;;;4925855;29;37571;-78
2021/08/30 10:03:27;;;;;;;;;;;20.00;99.90;;;;;;4924853;29;38430;-77
2021/08/30 10:05:55;;;;;;;14.35;8.55;;;20.10;99.90;;;;;;4924532;29;37978;-77
2021/08/30 10:08:22;;;;;;;15.70;10.35;;;20.20;99.90;;;;;;4928940;28;38414;-78
2021/08/30 10:10:49;;;;;;;13.57;8.05;;;20.40;99.90;;;;;;4911835;29;36844;-77
2021/08/30 10:13:17;;;;;;;14.00;8.57;;;20.60;99.90;;;;;;4930550;28;38083;-77
2021/08/30 10:15:49;;;;;;;14.10;7.65;;;20.70;99.90;;;;;;4928548;28;37227;-80
2021/08/30 10:18:21;;;;;;;;;;;20.60;99.90;;;;;;4914277;29;38580;-78
2021/08/30 10:20:49;;;;;;;13.77;8.30;;;20.50;99.90;;;;;;4926553;28;39060;-79
2021/08/30 10:23:20;;;;;;;13.95;8.57;;;20.50;99.90;;;;;;4910135;29;38294;-79
2021/08/30 10:25:58;;;;;;;12.77;8.10;;;20.50;99.90;;;;;;4925250;28;38794;-78
2021/08/30 10:28:35;;;;;;;12.77;8.20;;;20.40;99.90;;;;;;4906457;29;38571;-78
2021/08/30 10:31:12;;;;;;;16.98;8.35;;;20.30;99.90;;;;;;4925116;29;38838;-76
2021/08/30 10:33:38;;;;;;;15.18;8.40;;;20.30;99.90;;;;;;4912087;29;38501;-79
2021/08/30 10:36:12;;;;;;;18.30;9.80;;;20.30;99.90;;;;;;4928825;28;37538;-79
2021/08/30 10:38:39;;;;;;;11.35;7.75;;;20.20;99.90;;;;;;4926101;28;41234;-78
2021/08/30 10:41:18;;;;;;;17.08;8.35;;;20.20;99.90;;;;;;4923962;28;39644;-78
2021/08/30 10:43:45;;;;;;;14.63;8.30;;;20.50;99.90;;;;;;4908707;29;38473;-78
2021/08/30 10:46:14;;;;;;;13.10;7.63;;;20.60;99.90;;;;;;4917524;29;38038;-79
2021/08/30 10:48:50;;;;;;;12.73;7.65;;;20.70;99.90;;;;;;4928717;29;38679;-79
2021/08/30 10:51:20;;;;;;;12.20;8.60;;;20.70;99.90;;;;;;4909867;29;39372;-79
2021/08/30 10:53:57;;;;;;;13.88;8.70;;;20.40;99.90;;;;;;4929695;29;38913;-79
2021/08/30 10:56:31;;;;;;;15.02;8.63;;;20.40;99.90;;;;;;4916253;28;38183;-79
2021/08/30 10:59:03;;;;;;;16.75;7.70;;;20.50;99.90;;;;;;4931723;28;38724;-79
2021/08/30 11:01:29;;;;;;;15.18;7.65;;;20.60;99.90;;;;;;4923233;28;48865;-79
2021/08/30 11:03:57;;;;;;;14.38;7.65;;;20.80;99.90;;;;;;4927276;28;39528;-79
2021/08/30 11:06:24;;;;;;;14.65;8.38;;;21.00;99.90;;;;;;4929642;28;38629;-79
2021/08/30 11:08:51;;;;;;;13.50;7.30;;;21.10;99.90;;;;;;4926803;29;38898;-78
2021/08/30 11:11:22;;;;;;;11.45;6.93;;;21.00;99.90;;;;;;4929276;28;39737;-80
2021/08/30 11:14:07;;;;;;;13.38;6.75;;;21.00;99.90;;;;;;4926841;29;38943;-77
2021/08/30 11:16:35;;;;;;;12.77;7.10;;;20.90;99.90;;;;;;4923610;28;47123;-79
2021/08/30 11:19:07;;;;;;;10.45;6.90;;;21.00;99.90;;;;;;4927773;28;38518;-79
2021/08/30 11:21:42;;;;;;;;;;;21.00;99.90;;;;;;4910305;29;47094;-79
2021/08/30 11:24:23;;;;;;;12.32;6.93;;;21.10;99.90;;;;;;4925934;28;37970;-78
2021/08/30 11:26:49;;;;;;;15.30;6.82;;;21.20;99.90;;;;;;4922054;28;34871;-78
2021/08/30 11:29:16;;;;;;;14.82;7.80;;;21.20;99.90;;;;;;4928086;29;37896;-78
2021/08/30 11:31:42;;;;;;;18.75;8.32;;;21.30;99.90;;;;;;4926436;28;38297;-78
2021/08/30 11:34:10;;;;;;;12.10;7.18;;;21.30;99.90;;;;;;4922782;29;38199;-77
2021/08/30 11:36:46;;;;;;;12.80;6.45;;;21.50;99.90;;;;;;4926577;29;37726;-78
2021/08/30 11:39:15;;;;;;;12.68;7.47;;;21.70;99.90;;;;;;4924797;28;38054;-80
2021/08/30 11:41:46;;;;;;;21.25;7.22;;;21.90;99.90;;;;;;4900131;29;40525;-79
2021/08/30 11:44:15;;;;;;;11.00;6.55;;;21.90;99.90;;;;;;4930493;28;38926;-79
2021/08/30 11:46:48;;;;;;;9.75;5.97;;;21.70;99.90;;;;;;4909603;28;36389;-78
2021/08/30 11:49:14;;;;;;;12.45;6.28;;;21.70;99.90;;;;;;4913513;29;39598;-78
2021/08/30 11:51:42;;;;;;;12.93;6.78;;;21.80;99.90;;;;;;4923175;28;39073;-79
2021/08/30 11:54:13;;;;;;;10.95;6.13;;;22.30;99.90;;;;;;4923006;29;38249;-78
2021/08/30 11:56:39;;;;;;;11.25;6.78;;;22.70;99.90;;;;;;4926448;28;38424;-81
2021/08/30 11:59:06;;;;;;;13.60;6.10;;;22.60;99.90;;;;;;4898175;29;38208;-78
2021/08/30 12:01:37;;;;;;;14.13;6.72;;;22.40;99.90;;;;;;4920181;28;39340;-79
2021/08/30 12:04:17;;;;;;;12.75;6.13;;;22.50;99.90;;;;;;4924019;29;37739;-78
2021/08/30 12:06:52;;;;;;;13.05;7.03;;;22.80;99.90;;;;;;4923946;28;37444;-79
2021/08/30 12:09:18;;;;;;;13.52;6.90;;;22.50;99.90;;;;;;4926774;28;37711;-79
2021/08/30 12:11:49;;;;;;;11.40;7.25;;;22.20;99.90;;;;;;4911712;28;38729;-79
2021/08/30 12:14:16;;;;;;;12.82;7.72;;;22.20;99.90;;;;;;4906972;29;37096;-80
2021/08/30 12:16:45;;;;;;;10.50;6.43;;;22.30;99.90;;;;;;4923080;28;36139;-80
2021/08/30 12:19:11;;;;;;;9.82;7.10;;;22.50;99.90;;;;;;4912200;29;40613;-79
2021/08/30 12:21:39;;;;;;;12.32;6.60;;;22.70;99.90;;;;;;4925358;28;39070;-79
2021/08/30 12:24:07;;;;;;;11.07;6.32;;;22.80;99.90;;;;;;4926733;28;38913;-79
2021/08/30 12:26:39;;;;;;;10.75;7.07;;;22.60;99.90;;;;;;4924695;28;37306;-79
2021/08/30 12:29:05;;;;;;;15.77;6.78;;;22.70;99.90;;;;;;4924186;29;39576;-80
2021/08/30 12:31:34;;;;;;;14.82;7.22;;;23.00;99.90;;;;;;4922193;29;38163;-79
2021/08/30 12:34:24;;;;;;;8.35;5.30;;;22.90;99.90;;;;;;4924674;29;37209;-79
2021/08/30 12:36:51;;;;;;;12.95;6.05;;;23.00;99.90;;;;;;4904614;28;47676;-80
2021/08/30 12:39:17;;;;;;;12.80;6.93;;;23.00;99.90;;;;;;4923315;28;39003;-79
2021/08/30 12:41:44;;;;;;;10.45;6.68;;;22.80;99.90;;;;;;4926318;28;39167;-80